sensor_id;sensor_type;location;lat;lon;timestamp;pressure;altitude;pressure_sealevel;temperature;humidity
6208;BME280;3137;51.550;7.060;2023-06-19T00:00:27;74945.13;;;-145.94;39.15
6208;BME280;3137;51.550;7.060;2023-06-19T00:02:56;74947.16;;;-145.94;39.03
6208;BME280;3137;51.550;7.060;2023-06-19T00:05:22;74947.16;;;-145.94;39.02
6208;BME280;3137;51.550;7.060;2023-06-19T00:07:49;74939.00;;;-145.94;39.00
6208;BME280;3137;51.550;7.060;2023-06-19T00:10:16;74947.16;;;-145.94;39.22
6208;BME280;3137;51.550;7.060;2023-06-19T00:12:42;74955.31;;;-145.94;39.29
6208;BME280;3137;51.550;7.060;2023-06-19T00:15:09;74951.25;;;-145.94;39.32
6208;BME280;3137;51.550;7.060;2023-06-19T00:17:36;74949.22;;;-145.94;39.41
6208;BME280;3137;51.550;7.060;2023-06-19T00:20:05;74955.31;;;-145.94;39.60
6208;BME280;3137;51.550;7.060;2023-06-19T00:22:32;74961.44;;;-145.94;39.78
6208;BME280;3137;51.550;7.060;2023-06-19T00:24:59;74967.56;;;-145.94;39.84
6208;BME280;3137;51.550;7.060;2023-06-19T00:27:25;74975.69;;;-145.94;39.98
6208;BME280;3137;51.550;7.060;2023-06-19T00:29:52;74979.78;;;-145.94;40.21
6208;BME280;3137;51.550;7.060;2023-06-19T00:32:19;74989.97;;;-145.94;40.15
6208;BME280;3137;51.550;7.060;2023-06-19T00:34:46;74998.13;;;-145.94;40.24
6208;BME280;3137;51.550;7.060;2023-06-19T00:37:12;75010.34;;;-145.94;40.34
6208;BME280;3137;51.550;7.060;2023-06-19T00:39:39;75002.19;;;-145.94;40.29
6208;BME280;3137;51.550;7.060;2023-06-19T00:42:10;75010.34;;;-145.94;40.26
6208;BME280;3137;51.550;7.060;2023-06-19T00:44:37;75026.66;;;-145.94;40.48
6208;BME280;3137;51.550;7.060;2023-06-19T00:47:04;75030.72;;;-145.94;40.51
6208;BME280;3137;51.550;7.060;2023-06-19T00:49:31;75030.72;;;-145.94;40.80
6208;BME280;3137;51.550;7.060;2023-06-19T00:51:58;75038.88;;;-145.94;40.96
6208;BME280;3137;51.550;7.060;2023-06-19T00:54:25;75045.00;;;-145.94;41.00
6208;BME280;3137;51.550;7.060;2023-06-19T00:56:51;75055.19;;;-145.94;41.05
6208;BME280;3137;51.550;7.060;2023-06-19T00:59:19;75065.38;;;-145.94;41.26
6208;BME280;3137;51.550;7.060;2023-06-19T01:01:46;75067.44;;;-145.94;41.58
6208;BME280;3137;51.550;7.060;2023-06-19T01:04:13;75085.78;;;-145.94;41.77
6208;BME280;3137;51.550;7.060;2023-06-19T01:06:57;75091.88;;;-145.94;41.80
6208;BME280;3137;51.550;7.060;2023-06-19T01:09:29;75091.88;;;-145.94;41.72
6208;BME280;3137;51.550;7.060;2023-06-19T01:12:06;75093.91;;;-145.94;41.79
6208;BME280;3137;51.550;7.060;2023-06-19T01:15:04;75102.06;;;-145.94;41.94
6208;BME280;3137;51.550;7.060;2023-06-19T01:17:31;75100.03;;;-145.94;42.04
6208;BME280;3137;51.550;7.060;2023-06-19T01:19:59;75091.88;;;-145.94;41.85
6208;BME280;3137;51.550;7.060;2023-06-19T01:22:29;75095.97;;;-145.94;41.92
6208;BME280;3137;51.550;7.060;2023-06-19T01:24:58;75095.97;;;-145.94;41.92
6208;BME280;3137;51.550;7.060;2023-06-19T01:27:25;75093.91;;;-145.94;42.08
6208;BME280;3137;51.550;7.060;2023-06-19T01:29:56;75091.88;;;-145.94;41.94
6208;BME280;3137;51.550;7.060;2023-06-19T01:32:34;75087.81;;;-145.94;42.01
6208;BME280;3137;51.550;7.060;2023-06-19T01:35:04;75089.84;;;-145.94;42.10
6208;BME280;3137;51.550;7.060;2023-06-19T01:37:32;75089.84;;;-145.94;42.08
6208;BME280;3137;51.550;7.060;2023-06-19T01:39:59;75093.91;;;-145.94;42.48
6208;BME280;3137;51.550;7.060;2023-06-19T01:42:31;75100.03;;;-145.94;42.52
6208;BME280;3137;51.550;7.060;2023-06-19T01:44:58;75098.00;;;-145.94;42.43
6208;BME280;3137;51.550;7.060;2023-06-19T01:47:26;75108.19;;;-145.94;42.44
6208;BME280;3137;51.550;7.060;2023-06-19T01:49:53;75114.31;;;-145.94;43.00
6208;BME280;3137;51.550;7.060;2023-06-19T01:52:19;75122.47;;;-145.94;43.02
6208;BME280;3137;51.550;7.060;2023-06-19T01:54:45;75128.56;;;-145.94;43.25
6208;BME280;3137;51.550;7.060;2023-06-19T01:57:13;75140.81;;;-145.94;43.31
6208;BME280;3137;51.550;7.060;2023-06-19T01:59:40;75134.69;;;-145.94;43.58
6208;BME280;3137;51.550;7.060;2023-06-19T02:02:06;75148.97;;;-145.94;43.71
6208;BME280;3137;51.550;7.060;2023-06-19T02:04:33;75163.22;;;-145.94;44.11
6208;BME280;3137;51.550;7.060;2023-06-19T02:07:00;75169.34;;;-145.94;44.27
6208;BME280;3137;51.550;7.060;2023-06-19T02:09:27;75179.53;;;-145.94;44.31
6208;BME280;3137;51.550;7.060;2023-06-19T02:11:53;75187.69;;;-145.94;44.37
6208;BME280;3137;51.550;7.060;2023-06-19T02:14:19;75197.88;;;-145.94;44.54
6208;BME280;3137;51.550;7.060;2023-06-19T02:16:46;75201.94;;;-145.94;44.57
6208;BME280;3137;51.550;7.060;2023-06-19T02:19:12;75204.00;;;-145.94;44.78
6208;BME280;3137;51.550;7.060;2023-06-19T02:21:39;75208.06;;;-145.94;44.89
6208;BME280;3137;51.550;7.060;2023-06-19T02:24:05;75212.16;;;-145.94;45.20
6208;BME280;3137;51.550;7.060;2023-06-19T02:26:32;75222.34;;;-145.94;45.22
6208;BME280;3137;51.550;7.060;2023-06-19T02:28:58;75236.59;;;-145.94;45.32
6208;BME280;3137;51.550;7.060;2023-06-19T02:31:25;75238.66;;;-145.94;45.47
6208;BME280;3137;51.550;7.060;2023-06-19T02:33:51;75244.75;;;-145.94;45.43
6208;BME280;3137;51.550;7.060;2023-06-19T02:36:18;75254.94;;;-145.94;45.63
6208;BME280;3137;51.550;7.060;2023-06-19T02:38:46;75254.94;;;-145.94;45.83
6208;BME280;3137;51.550;7.060;2023-06-19T02:41:14;75265.16;;;-145.94;46.08
6208;BME280;3137;51.550;7.060;2023-06-19T02:43:42;75279.41;;;-145.94;45.82
6208;BME280;3137;51.550;7.060;2023-06-19T02:46:08;75273.28;;;-145.94;45.75
6208;BME280;3137;51.550;7.060;2023-06-19T02:48:40;75279.41;;;-145.94;45.55
6208;BME280;3137;51.550;7.060;2023-06-19T02:51:06;75279.41;;;-145.94;45.21
6208;BME280;3137;51.550;7.060;2023-06-19T02:53:33;75279.41;;;-145.94;45.02
6208;BME280;3137;51.550;7.060;2023-06-19T02:55:59;75269.22;;;-145.94;44.88
6208;BME280;3137;51.550;7.060;2023-06-19T02:58:26;75261.06;;;-145.94;44.47
6208;BME280;3137;51.550;7.060;2023-06-19T03:00:54;75257.00;;;-145.94;44.07
6208;BME280;3137;51.550;7.060;2023-06-19T03:03:21;75257.00;;;-145.94;44.15
6208;BME280;3137;51.550;7.060;2023-06-19T03:05:49;75246.78;;;-145.94;44.03
6208;BME280;3137;51.550;7.060;2023-06-19T03:08:16;75236.59;;;-145.94;43.64
6208;BME280;3137;51.550;7.060;2023-06-19T03:10:43;75222.34;;;-145.94;43.26
6208;BME280;3137;51.550;7.060;2023-06-19T03:13:10;75214.19;;;-145.94;43.38
6208;BME280;3137;51.550;7.060;2023-06-19T03:15:37;75208.06;;;-145.94;43.44
6208;BME280;3137;51.550;7.060;2023-06-19T03:18:03;75212.16;;;-145.94;43.38
6208;BME280;3137;51.550;7.060;2023-06-19T03:20:33;75214.19;;;-145.94;43.55
6208;BME280;3137;51.550;7.060;2023-06-19T03:23:00;75212.16;;;-145.94;43.83
6208;BME280;3137;51.550;7.060;2023-06-19T03:25:27;75216.22;;;-145.94;43.98
6208;BME280;3137;51.550;7.060;2023-06-19T03:28:01;75210.09;;;-145.94;44.02
6208;BME280;3137;51.550;7.060;2023-06-19T03:30:29;75220.31;;;-145.94;44.17
6208;BME280;3137;51.550;7.060;2023-06-19T03:32:56;75238.66;;;-145.94;44.58
6208;BME280;3137;51.550;7.060;2023-06-19T03:35:36;75259.03;;;-145.94;45.10
6208;BME280;3137;51.550;7.060;2023-06-19T03:38:03;75269.22;;;-145.94;45.21
6208;BME280;3137;51.550;7.060;2023-06-19T03:40:29;75273.28;;;-145.94;45.33
6208;BME280;3137;51.550;7.060;2023-06-19T03:43:01;75277.38;;;-145.94;45.74
6208;BME280;3137;51.550;7.060;2023-06-19T03:45:28;75289.59;;;-145.94;45.90
6208;BME280;3137;51.550;7.060;2023-06-19T03:47:54;75283.50;;;-145.94;46.08
6208;BME280;3137;51.550;7.060;2023-06-19T03:50:21;75287.56;;;-145.94;46.37
6208;BME280;3137;51.550;7.060;2023-06-19T03:52:50;75287.56;;;-145.94;46.21
6208;BME280;3137;51.550;7.060;2023-06-19T03:55:17;75301.84;;;-145.94;46.37
6208;BME280;3137;51.550;7.060;2023-06-19T03:57:43;75303.88;;;-145.94;46.81
6208;BME280;3137;51.550;7.060;2023-06-19T04:00:10;75299.78;;;-145.94;47.07
6208;BME280;3137;51.550;7.060;2023-06-19T04:02:39;75318.13;;;-145.94;47.28
6208;BME280;3137;51.550;7.060;2023-06-19T04:05:06;75316.09;;;-145.94;47.34
6208;BME280;3137;51.550;7.060;2023-06-19T04:07:33;75316.09;;;-145.94;47.57
6208;BME280;3137;51.550;7.060;2023-06-19T04:09:59;75318.13;;;-145.94;47.59
6208;BME280;3137;51.550;7.060;2023-06-19T04:12:25;75320.19;;;-145.94;47.70
6208;BME280;3137;51.550;7.060;2023-06-19T04:14:52;75324.25;;;-145.94;47.58
6208;BME280;3137;51.550;7.060;2023-06-19T04:17:19;75340.56;;;-145.94;47.88
6208;BME280;3137;51.550;7.060;2023-06-19T04:19:47;75356.88;;;-145.94;47.97
6208;BME280;3137;51.550;7.060;2023-06-19T04:22:14;75363.00;;;-145.94;48.06
6208;BME280;3137;51.550;7.060;2023-06-19T04:24:40;75387.44;;;-145.94;48.62
6208;BME280;3137;51.550;7.060;2023-06-19T04:27:07;75387.44;;;-145.94;48.55
6208;BME280;3137;51.550;7.060;2023-06-19T04:29:36;75415.97;;;-145.94;49.00
6208;BME280;3137;51.550;7.060;2023-06-19T04:32:03;75428.22;;;-145.94;49.22
6208;BME280;3137;51.550;7.060;2023-06-19T04:34:38;75432.28;;;-145.94;49.39
6208;BME280;3137;51.550;7.060;2023-06-19T04:37:05;75452.69;;;-145.94;49.57
6208;BME280;3137;51.550;7.060;2023-06-19T04:39:31;75460.84;;;-145.94;49.77
6208;BME280;3137;51.550;7.060;2023-06-19T04:41:58;75477.13;;;-145.94;50.11
6208;BME280;3137;51.550;7.060;2023-06-19T04:44:24;75491.41;;;-145.94;50.02
6208;BME280;3137;51.550;7.060;2023-06-19T04:46:50;75491.41;;;-145.94;50.59
6208;BME280;3137;51.550;7.060;2023-06-19T04:49:17;75483.25;;;-145.94;50.70
6208;BME280;3137;51.550;7.060;2023-06-19T04:51:44;75477.13;;;-145.94;50.32
6208;BME280;3137;51.550;7.060;2023-06-19T04:54:10;75493.44;;;-145.94;50.73
6208;BME280;3137;51.550;7.060;2023-06-19T04:56:36;75485.28;;;-145.94;50.46
6208;BME280;3137;51.550;7.060;2023-06-19T04:59:03;75495.50;;;-145.94;50.58
6208;BME280;3137;51.550;7.060;2023-06-19T05:01:29;75509.75;;;-145.94;50.87
6208;BME280;3137;51.550;7.060;2023-06-19T05:03:56;75517.91;;;-145.94;50.91
6208;BME280;3137;51.550;7.060;2023-06-19T05:06:24;75524.03;;;-145.94;51.07
6208;BME280;3137;51.550;7.060;2023-06-19T05:08:50;75526.06;;;-145.94;51.29
6208;BME280;3137;51.550;7.060;2023-06-19T05:11:17;75524.03;;;-145.94;51.47
6208;BME280;3137;51.550;7.060;2023-06-19T05:13:44;75519.94;;;-145.94;51.15
6208;BME280;3137;51.550;7.060;2023-06-19T05:16:10;75519.94;;;-145.94;51.68
6208;BME280;3137;51.550;7.060;2023-06-19T05:18:41;75517.91;;;-145.94;51.39
6208;BME280;3137;51.550;7.060;2023-06-19T05:21:08;75526.06;;;-145.94;51.54
6208;BME280;3137;51.550;7.060;2023-06-19T05:23:35;75538.28;;;-145.94;51.57
6208;BME280;3137;51.550;7.060;2023-06-19T05:26:01;75534.22;;;-145.94;51.69
6208;BME280;3137;51.550;7.060;2023-06-19T05:28:28;75534.22;;;-145.94;51.90
6208;BME280;3137;51.550;7.060;2023-06-19T05:30:54;75540.34;;;-145.94;52.01
6208;BME280;3137;51.550;7.060;2023-06-19T05:33:21;75528.09;;;-145.94;51.95
6208;BME280;3137;51.550;7.060;2023-06-19T05:35:49;75526.06;;;-145.94;51.84
6208;BME280;3137;51.550;7.060;2023-06-19T05:38:20;75517.91;;;-145.94;51.66
6208;BME280;3137;51.550;7.060;2023-06-19T05:40:47;75511.78;;;-145.94;51.53
6208;BME280;3137;51.550;7.060;2023-06-19T05:43:13;75515.88;;;-145.94;51.98
6208;BME280;3137;51.550;7.060;2023-06-19T05:45:40;75515.88;;;-145.94;51.64
6208;BME280;3137;51.550;7.060;2023-06-19T05:48:06;75532.19;;;-145.94;51.67
6208;BME280;3137;51.550;7.060;2023-06-19T05:50:33;75542.38;;;-145.94;51.97
6208;BME280;3137;51.550;7.060;2023-06-19T05:52:59;75560.72;;;-145.94;52.30
6208;BME280;3137;51.550;7.060;2023-06-19T05:55:26;75566.84;;;-145.94;52.77
6208;BME280;3137;51.550;7.060;2023-06-19T05:57:55;75579.06;;;-145.94;52.79
6208;BME280;3137;51.550;7.060;2023-06-19T06:00:22;75583.16;;;-145.94;52.89
6208;BME280;3137;51.550;7.060;2023-06-19T06:02:49;75591.28;;;-145.94;53.13
6208;BME280;3137;51.550;7.060;2023-06-19T06:05:18;75593.34;;;-145.94;52.96
6208;BME280;3137;51.550;7.060;2023-06-19T06:07:46;75603.53;;;-145.94;53.19
6208;BME280;3137;51.550;7.060;2023-06-19T06:10:13;75599.44;;;-145.94;53.03
6208;BME280;3137;51.550;7.060;2023-06-19T06:12:40;75607.59;;;-145.94;53.17
6208;BME280;3137;51.550;7.060;2023-06-19T06:15:07;75625.94;;;-145.94;53.57
6208;BME280;3137;51.550;7.060;2023-06-19T06:17:33;75621.88;;;-145.94;53.40
6208;BME280;3137;51.550;7.060;2023-06-19T06:20:00;75609.66;;;-145.94;53.05
6208;BME280;3137;51.550;7.060;2023-06-19T06:22:26;75611.69;;;-145.94;53.00
6208;BME280;3137;51.550;7.060;2023-06-19T06:24:53;75611.69;;;-145.94;52.79
6208;BME280;3137;51.550;7.060;2023-06-19T06:27:20;75617.81;;;-145.94;52.88
6208;BME280;3137;51.550;7.060;2023-06-19T06:29:47;75605.56;;;-145.94;53.28
6208;BME280;3137;51.550;7.060;2023-06-19T06:32:13;75615.75;;;-145.94;53.01
6208;BME280;3137;51.550;7.060;2023-06-19T06:34:40;75605.56;;;-145.94;52.95
6208;BME280;3137;51.550;7.060;2023-06-19T06:37:06;75601.50;;;-145.94;52.86
6208;BME280;3137;51.550;7.060;2023-06-19T06:39:33;75589.25;;;-145.94;52.34
6208;BME280;3137;51.550;7.060;2023-06-19T06:42:00;75587.22;;;-145.94;52.46
6208;BME280;3137;51.550;7.060;2023-06-19T06:44:26;75583.16;;;-145.94;52.33
6208;BME280;3137;51.550;7.060;2023-06-19T06:46:53;75591.28;;;-145.94;52.53
6208;BME280;3137;51.550;7.060;2023-06-19T06:49:20;75587.22;;;-145.94;52.52
6208;BME280;3137;51.550;7.060;2023-06-19T06:51:46;75591.28;;;-145.94;52.68
6208;BME280;3137;51.550;7.060;2023-06-19T06:54:13;75587.22;;;-145.94;52.72
6208;BME280;3137;51.550;7.060;2023-06-19T06:56:40;75585.19;;;-145.94;52.72
6208;BME280;3137;51.550;7.060;2023-06-19T06:59:06;75593.34;;;-145.94;52.72
6208;BME280;3137;51.550;7.060;2023-06-19T07:01:33;75591.28;;;-145.94;52.66
6208;BME280;3137;51.550;7.060;2023-06-19T07:03:59;75607.59;;;-145.94;52.64
6208;BME280;3137;51.550;7.060;2023-06-19T07:06:26;75603.53;;;-145.94;52.55
6208;BME280;3137;51.550;7.060;2023-06-19T07:08:56;75607.59;;;-145.94;52.97
6208;BME280;3137;51.550;7.060;2023-06-19T07:11:22;75607.59;;;-145.94;52.96
6208;BME280;3137;51.550;7.060;2023-06-19T07:13:50;75609.66;;;-145.94;52.84
6208;BME280;3137;51.550;7.060;2023-06-19T07:16:16;75611.69;;;-145.94;53.02
6208;BME280;3137;51.550;7.060;2023-06-19T07:18:43;75619.84;;;-145.94;53.13
6208;BME280;3137;51.550;7.060;2023-06-19T07:21:11;75621.88;;;-145.94;53.23
6208;BME280;3137;51.550;7.060;2023-06-19T07:23:42;75630.03;;;-145.94;53.26
6208;BME280;3137;51.550;7.060;2023-06-19T07:26:11;75625.94;;;-145.94;53.38
6208;BME280;3137;51.550;7.060;2023-06-19T07:28:37;75630.03;;;-145.94;53.41
6208;BME280;3137;51.550;7.060;2023-06-19T07:31:04;75628.00;;;-145.94;53.42
6208;BME280;3137;51.550;7.060;2023-06-19T07:33:30;75630.03;;;-145.94;53.79
6208;BME280;3137;51.550;7.060;2023-06-19T07:35:57;75619.84;;;-145.94;53.56
6208;BME280;3137;51.550;7.060;2023-06-19T07:38:23;75617.81;;;-145.94;53.70
6208;BME280;3137;51.550;7.060;2023-06-19T07:40:50;75607.59;;;-145.94;53.46
6208;BME280;3137;51.550;7.060;2023-06-19T07:43:16;75625.94;;;-145.94;53.88
6208;BME280;3137;51.550;7.060;2023-06-19T07:45:43;75634.09;;;-145.94;54.15
6208;BME280;3137;51.550;7.060;2023-06-19T07:48:10;75638.19;;;-145.94;54.63
6208;BME280;3137;51.550;7.060;2023-06-19T07:50:36;75658.56;;;-145.94;55.29
6208;BME280;3137;51.550;7.060;2023-06-19T07:53:03;75687.13;;;-145.94;55.97
6208;BME280;3137;51.550;7.060;2023-06-19T07:55:30;75691.19;;;-145.94;56.46
6208;BME280;3137;51.550;7.060;2023-06-19T07:57:56;75699.34;;;-145.94;56.71
6208;BME280;3137;51.550;7.060;2023-06-19T08:00:26;75689.16;;;-145.94;56.35
6208;BME280;3137;51.550;7.060;2023-06-19T08:02:53;75681.00;;;-145.94;56.49
6208;BME280;3137;51.550;7.060;2023-06-19T08:05:19;75672.84;;;-145.94;56.64
6208;BME280;3137;51.550;7.060;2023-06-19T08:07:46;75656.53;;;-145.94;56.66
6208;BME280;3137;51.550;7.060;2023-06-19T08:10:13;75640.22;;;-145.94;56.24
6208;BME280;3137;51.550;7.060;2023-06-19T08:12:41;75619.84;;;-145.94;55.56
6208;BME280;3137;51.550;7.060;2023-06-19T08:15:09;75621.88;;;-145.94;55.25
6208;BME280;3137;51.550;7.060;2023-06-19T08:17:36;75613.72;;;-145.94;54.85
6208;BME280;3137;51.550;7.060;2023-06-19T08:20:02;75611.69;;;-145.94;55.00
6208;BME280;3137;51.550;7.060;2023-06-19T08:22:33;75609.66;;;-145.94;54.32
6208;BME280;3137;51.550;7.060;2023-06-19T08:25:00;75617.81;;;-145.94;54.45
6208;BME280;3137;51.550;7.060;2023-06-19T08:27:26;75619.84;;;-145.94;54.45
6208;BME280;3137;51.550;7.060;2023-06-19T08:29:53;75638.19;;;-145.94;54.40
6208;BME280;3137;51.550;7.060;2023-06-19T08:32:19;75632.06;;;-145.94;55.12
6208;BME280;3137;51.550;7.060;2023-06-19T08:34:46;75632.06;;;-145.94;54.93
6208;BME280;3137;51.550;7.060;2023-06-19T08:37:12;75617.81;;;-145.94;54.74
6208;BME280;3137;51.550;7.060;2023-06-19T08:39:39;75589.25;;;-145.94;54.43
6208;BME280;3137;51.550;7.060;2023-06-19T08:42:06;75570.91;;;-145.94;54.41
6208;BME280;3137;51.550;7.060;2023-06-19T08:44:34;75550.53;;;-145.94;53.24
6208;BME280;3137;51.550;7.060;2023-06-19T08:47:05;75528.09;;;-145.94;52.74
6208;BME280;3137;51.550;7.060;2023-06-19T08:49:34;75517.91;;;-145.94;52.71
6208;BME280;3137;51.550;7.060;2023-06-19T08:52:02;75505.69;;;-145.94;52.95
6208;BME280;3137;51.550;7.060;2023-06-19T08:54:30;75485.28;;;-145.94;52.38
6208;BME280;3137;51.550;7.060;2023-06-19T08:57:00;75491.41;;;-145.94;51.89
6208;BME280;3137;51.550;7.060;2023-06-19T08:59:27;75491.41;;;-145.94;50.89
6208;BME280;3137;51.550;7.060;2023-06-19T09:01:55;75487.34;;;-145.94;51.17
6208;BME280;3137;51.550;7.060;2023-06-19T09:04:26;75471.03;;;-145.94;50.20
6208;BME280;3137;51.550;7.060;2023-06-19T09:06:56;75473.06;;;-145.94;49.65
6208;BME280;3137;51.550;7.060;2023-06-19T09:09:24;75497.53;;;-145.94;50.01
6208;BME280;3137;51.550;7.060;2023-06-19T09:12:12;75497.53;;;-145.94;50.06
6208;BME280;3137;51.550;7.060;2023-06-19T09:14:42;75493.44;;;-145.94;49.84
6208;BME280;3137;51.550;7.060;2023-06-19T09:17:11;75501.59;;;-145.94;50.22
6208;BME280;3137;51.550;7.060;2023-06-19T09:19:47;75501.59;;;-145.94;50.13
6208;BME280;3137;51.550;7.060;2023-06-19T09:22:16;75487.34;;;-145.94;50.13
6208;BME280;3137;51.550;7.060;2023-06-19T09:24:44;75473.06;;;-145.94;50.09
6208;BME280;3137;51.550;7.060;2023-06-19T09:27:12;75464.91;;;-145.94;49.77
6208;BME280;3137;51.550;7.060;2023-06-19T09:29:41;75448.59;;;-145.94;49.39
6208;BME280;3137;51.550;7.060;2023-06-19T09:32:33;75448.59;;;-145.94;49.28
6208;BME280;3137;51.550;7.060;2023-06-19T09:35:00;75440.44;;;-145.94;49.69
6208;BME280;3137;51.550;7.060;2023-06-19T09:37:30;75430.25;;;-145.94;49.41
6208;BME280;3137;51.550;7.060;2023-06-19T09:40:00;75438.41;;;-145.94;48.87
6208;BME280;3137;51.550;7.060;2023-06-19T09:42:32;75436.38;;;-145.94;48.71
6208;BME280;3137;51.550;7.060;2023-06-19T09:45:12;75424.13;;;-145.94;48.66
6208;BME280;3137;51.550;7.060;2023-06-19T09:47:51;75391.53;;;-145.94;49.01
6208;BME280;3137;51.550;7.060;2023-06-19T09:50:23;75356.88;;;-145.94;48.57
6208;BME280;3137;51.550;7.060;2023-06-19T09:52:54;75363.00;;;-145.94;47.05
6208;BME280;3137;51.550;7.060;2023-06-19T09:55:23;75344.63;;;-145.94;47.02
6208;BME280;3137;51.550;7.060;2023-06-19T09:57:51;75342.59;;;-145.94;47.05
6208;BME280;3137;51.550;7.060;2023-06-19T10:00:19;75328.34;;;-145.94;45.66
6208;BME280;3137;51.550;7.060;2023-06-19T10:02:49;75336.50;;;-145.94;45.17
6208;BME280;3137;51.550;7.060;2023-06-19T10:05:16;75334.44;;;-145.94;45.63
6208;BME280;3137;51.550;7.060;2023-06-19T10:07:45;75336.50;;;-145.94;45.94
6208;BME280;3137;51.550;7.060;2023-06-19T10:10:23;75346.69;;;-145.94;45.96
6208;BME280;3137;51.550;7.060;2023-06-19T10:12:50;75383.38;;;-145.94;45.56
6208;BME280;3137;51.550;7.060;2023-06-19T10:15:19;75365.03;;;-145.94;45.23
6208;BME280;3137;51.550;7.060;2023-06-19T10:17:51;75346.69;;;-145.94;45.72
6208;BME280;3137;51.550;7.060;2023-06-19T10:20:34;75352.78;;;-145.94;44.87
6208;BME280;3137;51.550;7.060;2023-06-19T10:25:41;75342.59;;;-145.94;44.90
6208;BME280;3137;51.550;7.060;2023-06-19T10:28:16;75322.22;;;-145.94;43.69
6208;BME280;3137;51.550;7.060;2023-06-19T10:30:43;75322.22;;;-145.94;43.93
6208;BME280;3137;51.550;7.060;2023-06-19T10:33:09;75312.03;;;-145.94;44.28
6208;BME280;3137;51.550;7.060;2023-06-19T10:35:40;75312.03;;;-145.94;43.49
6208;BME280;3137;51.550;7.060;2023-06-19T10:38:07;75289.59;;;-145.94;42.64
6208;BME280;3137;51.550;7.060;2023-06-19T10:40:36;75265.16;;;-145.94;42.83
6208;BME280;3137;51.550;7.060;2023-06-19T10:43:03;75261.06;;;-145.94;41.06
6208;BME280;3137;51.550;7.060;2023-06-19T10:45:30;75248.84;;;-145.94;41.99
6208;BME280;3137;51.550;7.060;2023-06-19T10:48:00;75252.91;;;-145.94;42.33
6208;BME280;3137;51.550;7.060;2023-06-19T10:50:27;75222.34;;;-145.94;41.52
6208;BME280;3137;51.550;7.060;2023-06-19T10:52:54;75204.00;;;-145.94;41.07
6208;BME280;3137;51.550;7.060;2023-06-19T10:55:23;75191.75;;;-145.94;41.19
6208;BME280;3137;51.550;7.060;2023-06-19T10:57:50;75171.38;;;-145.94;41.30
6208;BME280;3137;51.550;7.060;2023-06-19T11:00:31;75201.94;;;-145.94;41.30
6208;BME280;3137;51.550;7.060;2023-06-19T11:02:58;75195.84;;;-145.94;40.06
6208;BME280;3137;51.550;7.060;2023-06-19T11:05:27;75199.91;;;-145.94;40.31
6208;BME280;3137;51.550;7.060;2023-06-19T11:07:58;75187.69;;;-145.94;41.05
6208;BME280;3137;51.550;7.060;2023-06-19T11:10:29;75204.00;;;-145.94;40.90
6208;BME280;3137;51.550;7.060;2023-06-19T11:12:57;75179.53;;;-145.94;40.14
6208;BME280;3137;51.550;7.060;2023-06-19T11:15:33;75185.66;;;-145.94;39.96
6208;BME280;3137;51.550;7.060;2023-06-19T11:18:01;75185.66;;;-145.94;40.20
6208;BME280;3137;51.550;7.060;2023-06-19T11:20:29;75189.72;;;-145.94;40.34
6208;BME280;3137;51.550;7.060;2023-06-19T11:22:57;75169.34;;;-145.94;40.73
6208;BME280;3137;51.550;7.060;2023-06-19T11:25:35;75163.22;;;-145.94;39.79
6208;BME280;3137;51.550;7.060;2023-06-19T11:28:02;75179.53;;;-145.94;39.58
6208;BME280;3137;51.550;7.060;2023-06-19T11:30:33;75201.94;;;-145.94;39.57
6208;BME280;3137;51.550;7.060;2023-06-19T11:33:00;75195.84;;;-145.94;40.03
6208;BME280;3137;51.550;7.060;2023-06-19T11:35:34;75191.75;;;-145.94;40.43
6208;BME280;3137;51.550;7.060;2023-06-19T11:38:04;75167.31;;;-145.94;40.11
6208;BME280;3137;51.550;7.060;2023-06-19T11:40:39;75136.72;;;-145.94;39.17
6208;BME280;3137;51.550;7.060;2023-06-19T11:43:06;75100.03;;;-145.94;37.71
6208;BME280;3137;51.550;7.060;2023-06-19T11:45:47;75085.78;;;-145.94;38.36
6208;BME280;3137;51.550;7.060;2023-06-19T11:48:21;75093.91;;;-145.94;37.86
6208;BME280;3137;51.550;7.060;2023-06-19T11:50:48;75104.13;;;-145.94;37.51
6208;BME280;3137;51.550;7.060;2023-06-19T11:53:14;75118.38;;;-145.94;37.45
6208;BME280;3137;51.550;7.060;2023-06-19T11:55:41;75108.19;;;-145.94;38.52
6208;BME280;3137;51.550;7.060;2023-06-19T11:58:07;75077.63;;;-145.94;37.22
6208;BME280;3137;51.550;7.060;2023-06-19T12:00:36;75085.78;;;-145.94;37.06
6208;BME280;3137;51.550;7.060;2023-06-19T12:03:03;75047.03;;;-145.94;37.91
6208;BME280;3137;51.550;7.060;2023-06-19T12:05:30;75042.97;;;-145.94;36.46
6208;BME280;3137;51.550;7.060;2023-06-19T12:07:56;75067.44;;;-145.94;37.12
6208;BME280;3137;51.550;7.060;2023-06-19T12:10:23;75034.81;;;-145.94;37.54
6208;BME280;3137;51.550;7.060;2023-06-19T12:12:50;75034.81;;;-145.94;37.19
6208;BME280;3137;51.550;7.060;2023-06-19T12:15:16;75014.44;;;-145.94;36.49
6208;BME280;3137;51.550;7.060;2023-06-19T12:17:43;75008.31;;;-145.94;36.44
6208;BME280;3137;51.550;7.060;2023-06-19T12:20:10;75002.19;;;-145.94;37.07
6208;BME280;3137;51.550;7.060;2023-06-19T12:22:37;74977.75;;;-145.94;35.72
6208;BME280;3137;51.550;7.060;2023-06-19T12:25:03;74983.84;;;-145.94;35.19
6208;BME280;3137;51.550;7.060;2023-06-19T12:27:30;75022.59;;;-145.94;35.54
6208;BME280;3137;51.550;7.060;2023-06-19T12:29:56;75026.66;;;-145.94;35.69
6208;BME280;3137;51.550;7.060;2023-06-19T12:32:23;75034.81;;;-145.94;35.88
6208;BME280;3137;51.550;7.060;2023-06-19T12:34:51;75047.03;;;-145.94;36.18
6208;BME280;3137;51.550;7.060;2023-06-19T12:37:20;75045.00;;;-145.94;37.28
6208;BME280;3137;51.550;7.060;2023-06-19T12:39:48;75018.50;;;-145.94;36.51
6208;BME280;3137;51.550;7.060;2023-06-19T12:42:15;75040.94;;;-145.94;36.00
6208;BME280;3137;51.550;7.060;2023-06-19T12:44:42;75040.94;;;-145.94;36.31
6208;BME280;3137;51.550;7.060;2023-06-19T12:47:08;75049.09;;;-145.94;36.67
6208;BME280;3137;51.550;7.060;2023-06-19T12:49:36;75053.16;;;-145.94;36.31
6208;BME280;3137;51.550;7.060;2023-06-19T12:52:02;75057.22;;;-145.94;36.50
6208;BME280;3137;51.550;7.060;2023-06-19T12:54:29;75067.44;;;-145.94;35.39
6208;BME280;3137;51.550;7.060;2023-06-19T12:56:56;75077.63;;;-145.94;35.99
6208;BME280;3137;51.550;7.060;2023-06-19T12:59:22;75091.88;;;-145.94;35.72
6208;BME280;3137;51.550;7.060;2023-06-19T13:01:49;75085.78;;;-145.94;36.38
6208;BME280;3137;51.550;7.060;2023-06-19T13:04:15;75069.47;;;-145.94;35.83
6208;BME280;3137;51.550;7.060;2023-06-19T13:06:42;75069.47;;;-145.94;36.49